createdAt,value
2018-07-05T00:00:39.648Z,25.17
2018-07-05T00:03:33.370Z,27.03
2018-07-05T00:06:20.945Z,26.17
2018-07-05T00:09:14.414Z,25.77
2018-07-05T00:12:08.061Z,27.90
2018-07-05T00:15:01.457Z,25.17
2018-07-05T00:17:55.089Z,23.43
2018-07-05T00:20:48.648Z,24.73
2018-07-05T00:23:42.148Z,24.57
2018-07-05T00:26:35.695Z,24.23
2018-07-05T00:29:29.363Z,22.80
2018-07-05T00:32:24.918Z,22.73
2018-07-05T00:35:20.013Z,22.73
2018-07-05T00:38:13.677Z,22.47
2018-07-05T00:41:07.140Z,23.23
2018-07-05T00:44:00.908Z,23.30
2018-07-05T00:46:54.458Z,22.23
2018-07-05T00:49:48.095Z,23.00
2018-07-05T00:52:41.501Z,23.93
2018-07-05T00:55:35.246Z,23.93
2018-07-05T00:58:28.826Z,25.73
2018-07-05T01:01:22.404Z,23.87
2018-07-05T01:04:16.601Z,25.50
2018-07-05T01:07:04.249Z,25.17
2018-07-05T01:09:57.805Z,23.60
2018-07-05T01:12:51.277Z,25.33
2018-07-05T01:15:44.725Z,23.53
2018-07-05T01:18:38.299Z,23.57
2018-07-05T01:21:31.856Z,23.83
2018-07-05T01:24:25.416Z,23.33
2018-07-05T01:27:19.090Z,22.03
2018-07-05T01:30:12.640Z,21.53
2018-07-05T01:33:05.949Z,24.70
2018-07-05T01:35:59.470Z,23.80
2018-07-05T01:38:52.968Z,23.43
2018-07-05T01:41:47.093Z,24.37
2018-07-05T01:44:41.251Z,28.07
2018-07-05T01:47:28.690Z,28.57
2018-07-05T01:50:22.055Z,31.60
2018-07-05T01:53:15.609Z,34.23
2018-07-05T01:56:09.119Z,33.10
2018-07-05T01:59:16.840Z,31.30
2018-07-05T02:02:05.866Z,27.30
2018-07-05T02:04:59.197Z,27.23
2018-07-05T02:07:52.675Z,28.63
2018-07-05T02:10:46.292Z,23.27
2018-07-05T02:13:40.090Z,26.40
2018-07-05T02:16:33.629Z,24.47
2018-07-05T02:19:27.263Z,25.93
2018-07-05T02:22:20.708Z,25.83
2018-07-05T02:25:17.926Z,25.43
2018-07-05T02:28:11.381Z,28.83
2018-07-05T02:31:04.938Z,27.73
2018-07-05T02:34:03.413Z,27.40
2018-07-05T02:36:57.004Z,22.27
2018-07-05T02:39:49.475Z,25.10
2018-07-05T02:42:42.925Z,23.83
2018-07-05T02:45:36.394Z,23.73
2018-07-05T02:48:29.866Z,21.20
2018-07-05T02:51:23.353Z,23.07
2018-07-05T02:54:17.208Z,25.63
2018-07-05T02:57:04.777Z,26.23
2018-07-05T02:59:58.226Z,25.73
2018-07-05T03:03:05.056Z,26.77
2018-07-05T03:05:59.328Z,27.33
2018-07-05T03:08:52.818Z,27.33
2018-07-05T03:11:46.414Z,29.20
2018-07-05T03:14:40.162Z,31.23
2018-07-05T03:17:33.702Z,30.50
2018-07-05T03:20:27.354Z,33.77
2018-07-05T03:23:20.763Z,32.63
2018-07-05T03:26:14.486Z,33.17
2018-07-05T03:29:07.968Z,33.07
2018-07-05T03:31:55.488Z,36.87
2018-07-05T03:34:49.179Z,32.27
2018-07-05T03:37:42.687Z,35.00
2018-07-05T03:40:35.982Z,32.60
2018-07-05T03:43:29.812Z,32.20
2018-07-05T03:46:24.591Z,33.70
2018-07-05T03:49:18.153Z,38.60
2018-07-05T03:52:11.713Z,41.43
2018-07-05T03:55:05.205Z,39.53
2018-07-05T03:57:58.883Z,41.80
2018-07-05T04:00:52.569Z,42.57
2018-07-05T04:03:40.264Z,40.80
2018-07-05T04:06:33.734Z,37.97
2018-07-05T04:09:27.296Z,36.77
2018-07-05T04:12:20.847Z,36.70
2018-07-05T04:15:16.240Z,32.87
2018-07-05T04:18:09.934Z,33.07
2018-07-05T04:21:03.536Z,33.67
2018-07-05T04:23:56.974Z,34.13
2018-07-05T04:26:50.260Z,31.73
2018-07-05T04:29:43.762Z,31.17
2018-07-05T04:32:37.335Z,32.77
2018-07-05T04:35:31.428Z,31.47
2018-07-05T04:38:24.955Z,30.83
2018-07-05T04:41:18.466Z,30.67
2018-07-05T04:44:12.146Z,31.17
2018-07-05T04:47:07.074Z,30.43
2018-07-05T04:50:01.041Z,28.40
2018-07-05T04:52:54.721Z,29.70
2018-07-05T04:55:48.094Z,28.13
2018-07-05T04:58:41.601Z,28.83
2018-07-05T05:01:35.231Z,27.40
2018-07-05T05:04:28.765Z,26.87
2018-07-05T05:07:22.382Z,25.93
2018-07-05T05:10:17.867Z,25.57
2018-07-05T05:13:11.235Z,26.00
2018-07-05T05:16:04.858Z,25.00
2018-07-05T05:18:58.368Z,21.50
2018-07-05T05:21:52.025Z,23.03
2018-07-05T05:24:40.631Z,21.77
2018-07-05T05:27:34.023Z,21.62
2018-07-05T05:30:27.427Z,21.33
2018-07-05T05:33:20.836Z,20.20
2018-07-05T05:36:14.486Z,19.53
2018-07-05T05:39:09.043Z,19.37
2018-07-05T05:42:02.620Z,19.90
2018-07-05T05:44:56.445Z,19.60
2018-07-05T05:47:50.682Z,21.17
2018-07-05T05:50:44.447Z,21.33
2018-07-05T05:53:38.137Z,24.67
2018-07-05T05:56:31.455Z,25.13
2018-07-05T05:59:25.022Z,24.13
2018-07-05T06:02:19.694Z,23.77
2018-07-05T06:05:15.078Z,24.37
2018-07-05T06:08:08.673Z,23.03
2018-07-05T06:11:01.982Z,20.03
2018-07-05T06:13:55.759Z,19.70
2018-07-05T06:16:49.113Z,19.43
2018-07-05T06:19:42.672Z,19.17
2018-07-05T06:22:35.982Z,17.73
2018-07-05T06:25:29.367Z,18.43
2018-07-05T06:28:22.790Z,17.33
2018-07-05T06:31:16.484Z,17.60
2018-07-05T06:34:09.943Z,16.80
2018-07-05T06:37:03.568Z,16.97
2018-07-05T06:39:57.002Z,15.60
2018-07-05T06:42:50.425Z,17.37
2018-07-05T06:45:43.872Z,14.47
2018-07-05T06:48:37.508Z,17.70
2018-07-05T06:51:30.917Z,15.97
2018-07-05T06:54:24.495Z,18.03
2018-07-05T06:57:17.944Z,17.77
2018-07-05T07:00:11.571Z,15.43
2018-07-05T07:03:05.264Z,14.13
2018-07-05T07:05:58.884Z,15.40
2018-07-05T07:08:46.394Z,15.00
2018-07-05T07:11:40.013Z,15.10
2018-07-05T07:14:33.521Z,13.50
2018-07-05T07:17:27.163Z,14.13
2018-07-05T07:20:20.761Z,14.50
2018-07-05T07:23:14.305Z,12.40
2018-07-05T07:26:07.694Z,14.10
2018-07-05T07:29:01.342Z,12.97
2018-07-05T07:31:54.889Z,13.77
2018-07-05T07:34:48.362Z,13.00
2018-07-05T07:37:35.904Z,12.00
2018-07-05T07:40:29.413Z,12.87
2018-07-05T07:43:04.652Z,13.47
2018-07-05T07:45:33.685Z,12.50
2018-07-05T07:48:02.409Z,10.87
2018-07-05T07:50:31.201Z,11.43
2018-07-05T07:52:59.986Z,11.73
2018-07-05T07:55:28.750Z,13.40
2018-07-05T07:57:57.537Z,11.43
2018-07-05T08:00:26.316Z,10.57
2018-07-05T08:02:55.133Z,11.27
2018-07-05T08:05:23.866Z,11.27
2018-07-05T08:07:52.680Z,11.27
2018-07-05T08:10:21.392Z,11.27
2018-07-05T08:12:50.356Z,10.37
2018-07-05T08:15:19.023Z,10.20
2018-07-05T08:17:47.740Z,9.20
2018-07-05T08:20:20.167Z,8.93
2018-07-05T08:22:49.596Z,9.30
2018-07-05T08:25:18.644Z,8.90
2018-07-05T08:27:47.467Z,8.40
2018-07-05T08:30:18.970Z,9.40
2018-07-05T08:32:48.494Z,9.60
2018-07-05T08:35:19.862Z,9.33
2018-07-05T08:37:48.940Z,10.13
2018-07-05T08:40:20.795Z,9.90
2018-07-05T08:42:49.998Z,11.07
2018-07-05T08:45:19.262Z,11.27
2018-07-05T08:47:48.691Z,11.30
2018-07-05T08:50:19.605Z,10.43
2018-07-05T08:52:48.336Z,11.07
2018-07-05T08:55:18.024Z,10.77
2018-07-05T08:57:46.754Z,10.90
2018-07-05T09:00:18.529Z,10.87
2018-07-05T09:02:47.291Z,8.30
2018-07-05T09:05:29.836Z,9.60
2018-07-05T09:08:00.261Z,9.77
2018-07-05T09:10:29.006Z,8.37
2018-07-05T09:12:57.750Z,9.07
2018-07-05T09:15:26.486Z,9.10
2018-07-05T09:17:55.397Z,9.20
2018-07-05T09:20:23.993Z,8.97
2018-07-05T09:22:52.912Z,9.07
2018-07-05T09:25:21.718Z,8.67
2018-07-05T09:27:50.632Z,9.30
2018-07-05T09:30:20.130Z,8.57
2018-07-05T09:32:49.288Z,7.63
2018-07-05T09:35:30.126Z,7.53
2018-07-05T09:37:59.506Z,7.70
2018-07-05T09:40:28.758Z,7.13
2018-07-05T09:42:57.328Z,6.57
2018-07-05T09:45:26.521Z,7.17
2018-07-05T09:47:55.316Z,7.33
2018-07-05T09:50:24.029Z,6.87
2018-07-05T09:52:52.952Z,7.30
2018-07-05T09:55:21.782Z,7.87
2018-07-05T09:57:50.567Z,7.83
2018-07-05T10:00:24.351Z,7.57
2018-07-05T10:02:53.250Z,7.77
2018-07-05T10:05:24.309Z,7.67
2018-07-05T10:07:53.083Z,8.53
2018-07-05T10:10:31.604Z,7.90
2018-07-05T10:13:00.548Z,7.63
2018-07-05T10:15:29.615Z,8.10
2018-07-05T10:17:58.220Z,8.17
2018-07-05T10:20:26.997Z,8.53
2018-07-05T10:22:55.737Z,8.00
2018-07-05T10:25:24.736Z,8.43
2018-07-05T10:27:53.925Z,8.87
2018-07-05T10:30:41.109Z,8.33
2018-07-05T10:33:34.852Z,8.13
2018-07-05T10:36:09.808Z,8.27
2018-07-05T10:38:38.908Z,8.20
2018-07-05T10:41:26.188Z,8.03
2018-07-05T10:44:19.698Z,7.30
2018-07-05T10:47:13.200Z,7.57
2018-07-05T10:50:07.280Z,7.30
2018-07-05T10:53:00.564Z,7.80
2018-07-05T10:55:54.055Z,6.77
2018-07-05T10:58:47.439Z,6.63
2018-07-05T11:01:40.870Z,5.40
2018-07-05T11:04:34.395Z,5.37
2018-07-05T11:07:27.909Z,6.10
2018-07-05T11:10:21.959Z,6.17
2018-07-05T11:13:15.512Z,6.50
2018-07-05T11:16:09.083Z,5.93
2018-07-05T11:19:03.090Z,5.50
2018-07-05T11:22:03.009Z,5.90
2018-07-05T11:24:57.062Z,5.40
2018-07-05T11:27:50.885Z,6.03
2018-07-05T11:30:44.284Z,5.57
2018-07-05T11:33:37.675Z,5.90
2018-07-05T11:36:31.191Z,6.27
2018-07-05T11:39:24.946Z,5.70
2018-07-05T11:42:19.416Z,5.73
2018-07-05T11:45:16.666Z,5.90
2018-07-05T11:48:04.188Z,5.93
2018-07-05T11:50:57.586Z,6.10
2018-07-05T11:53:51.285Z,5.60
2018-07-05T11:56:44.663Z,5.90
2018-07-05T11:59:37.992Z,5.00
2018-07-05T12:02:31.391Z,5.30
2018-07-05T12:05:24.872Z,6.03
2018-07-05T12:08:18.089Z,6.07
2018-07-05T12:11:11.728Z,6.27
2018-07-05T12:14:05.538Z,6.37
2018-07-05T12:16:59.125Z,6.10
2018-07-05T12:19:52.584Z,5.53
2018-07-05T12:22:46.046Z,5.83
2018-07-05T12:25:39.529Z,5.73
2018-07-05T12:28:32.984Z,5.73
2018-07-05T12:31:26.752Z,4.97
2018-07-05T12:34:19.987Z,5.80
2018-07-05T12:37:13.568Z,5.90
2018-07-05T12:40:07.016Z,6.63
2018-07-05T12:43:01.814Z,6.70
2018-07-05T12:45:55.285Z,6.67
2018-07-05T12:48:48.796Z,7.00
2018-07-05T12:51:42.312Z,6.37
2018-07-05T12:54:35.946Z,6.17
2018-07-05T12:57:29.825Z,6.33
2018-07-05T13:00:23.209Z,6.67
2018-07-05T13:03:16.740Z,5.87
2018-07-05T13:06:10.246Z,7.13
2018-07-05T13:09:05.395Z,6.70
2018-07-05T13:11:58.885Z,6.17
2018-07-05T13:14:52.306Z,6.07
2018-07-05T13:17:45.728Z,5.87
2018-07-05T13:20:39.502Z,6.53
2018-07-05T13:23:34.101Z,6.63
2018-07-05T13:26:27.680Z,7.00
2018-07-05T13:29:21.231Z,6.80
2018-07-05T13:32:14.723Z,6.97
2018-07-05T13:35:08.225Z,6.33
2018-07-05T13:38:02.960Z,6.40
2018-07-05T13:40:56.646Z,6.47
2018-07-05T13:43:50.644Z,7.30
2018-07-05T13:46:44.545Z,7.13
2018-07-05T13:49:38.092Z,7.23
2018-07-05T13:52:31.983Z,8.07
2018-07-05T13:55:25.612Z,8.10
2018-07-05T13:58:19.210Z,7.63
2018-07-05T14:01:12.895Z,7.67
2018-07-05T14:04:06.760Z,8.07
2018-07-05T14:07:01.039Z,8.50
2018-07-05T14:09:54.473Z,8.00
2018-07-05T14:12:48.031Z,8.00
2018-07-05T14:15:35.628Z,7.83
2018-07-05T14:18:29.707Z,7.60
2018-07-05T14:21:24.488Z,8.33
2018-07-05T14:24:18.279Z,8.10
2018-07-05T14:27:11.709Z,8.30
2018-07-05T14:30:05.434Z,7.73
2018-07-05T14:32:59.051Z,7.67
2018-07-05T14:35:52.453Z,7.40
2018-07-05T14:38:45.889Z,7.53
2018-07-05T14:41:39.692Z,7.67
2018-07-05T14:44:39.490Z,7.90
2018-07-05T14:47:38.216Z,7.80
2018-07-05T14:50:31.907Z,7.30
2018-07-05T14:53:25.596Z,7.77
2018-07-05T14:56:19.004Z,7.80
2018-07-05T14:59:12.526Z,8.67
2018-07-05T15:02:05.997Z,8.00
2018-07-05T15:04:59.631Z,8.37
2018-07-05T15:07:53.074Z,7.80
2018-07-05T15:10:46.934Z,6.97
2018-07-05T15:13:40.669Z,7.70
2018-07-05T15:16:34.716Z,7.90
2018-07-05T15:19:28.349Z,8.20
2018-07-05T15:22:21.919Z,8.13
2018-07-05T15:25:15.992Z,7.93
2018-07-05T15:28:09.543Z,7.93
2018-07-05T15:31:02.994Z,7.87
2018-07-05T15:33:56.767Z,7.80
2018-07-05T15:36:50.234Z,7.07
2018-07-05T15:39:45.907Z,7.40
2018-07-05T15:42:39.409Z,7.27
2018-07-05T15:45:32.953Z,7.70
2018-07-05T15:48:26.321Z,7.37
2018-07-05T15:51:19.680Z,7.30
2018-07-05T15:54:13.891Z,7.60
2018-07-05T15:57:07.206Z,6.93
2018-07-05T16:00:00.821Z,7.90
2018-07-05T16:02:54.390Z,6.70
2018-07-05T16:05:52.091Z,7.67
2018-07-05T16:08:45.573Z,7.60
2018-07-05T16:11:38.982Z,7.47
2018-07-05T16:14:32.338Z,7.03
2018-07-05T16:17:25.914Z,6.80
2018-07-05T16:20:19.451Z,6.60
2018-07-05T16:23:12.922Z,7.43
2018-07-05T16:26:06.601Z,7.33
2018-07-05T16:29:00.985Z,7.03
2018-07-05T16:31:54.489Z,7.90
2018-07-05T16:34:47.863Z,7.10
2018-07-05T16:37:41.477Z,7.77
2018-07-05T16:40:35.343Z,7.30
2018-07-05T16:43:28.849Z,7.53
2018-07-05T16:46:22.448Z,7.63
2018-07-05T16:49:16.293Z,7.67
2018-07-05T16:52:09.802Z,7.33
2018-07-05T16:55:03.316Z,7.60
2018-07-05T16:57:56.874Z,7.60
2018-07-05T17:00:50.466Z,8.30
2018-07-05T17:03:43.962Z,7.13
2018-07-05T17:06:37.900Z,7.40
2018-07-05T17:09:31.399Z,7.23
2018-07-05T17:12:25.615Z,7.60
2018-07-05T17:15:18.981Z,7.93
2018-07-05T17:18:08.590Z,7.50
2018-07-05T17:21:01.985Z,7.50
2018-07-05T17:23:55.557Z,8.17
2018-07-05T17:26:48.894Z,8.17
2018-07-05T17:29:42.673Z,8.50
2018-07-05T17:32:37.564Z,8.13
2018-07-05T17:35:25.196Z,7.63
2018-07-05T17:38:18.805Z,8.20
2018-07-05T17:41:12.188Z,8.43
2018-07-05T17:44:05.723Z,8.10
2018-07-05T17:46:59.086Z,8.57
2018-07-05T17:49:52.405Z,9.37
2018-07-05T17:52:45.993Z,8.13
2018-07-05T17:55:39.567Z,9.10
2018-07-05T17:58:33.003Z,8.63
2018-07-05T18:01:26.474Z,8.00
2018-07-05T18:04:19.980Z,7.43
2018-07-05T18:07:13.649Z,8.80
2018-07-05T18:10:07.109Z,9.10
2018-07-05T18:13:00.528Z,8.53
2018-07-05T18:15:58.206Z,8.77
2018-07-05T18:18:51.867Z,8.37
2018-07-05T18:21:45.649Z,8.57
2018-07-05T18:24:39.441Z,8.10
2018-07-05T18:27:35.022Z,8.07
2018-07-05T18:30:28.403Z,8.00
2018-07-05T18:33:21.845Z,8.00
2018-07-05T18:36:15.512Z,8.27
2018-07-05T18:39:08.955Z,7.90
2018-07-05T18:42:02.525Z,8.07
2018-07-05T18:44:56.382Z,9.13
2018-07-05T18:47:49.798Z,8.97
2018-07-05T18:50:44.100Z,8.50
2018-07-05T18:53:38.076Z,9.33
2018-07-05T18:56:33.004Z,8.30
2018-07-05T18:59:26.772Z,9.20
2018-07-05T19:02:20.342Z,9.00
2018-07-05T19:05:15.121Z,9.90
2018-07-05T19:08:02.645Z,10.17
2018-07-05T19:10:56.039Z,9.60
2018-07-05T19:13:55.581Z,9.53
2018-07-05T19:16:49.321Z,9.73
2018-07-05T19:19:42.989Z,9.90
2018-07-05T19:22:36.425Z,10.70
2018-07-05T19:25:29.937Z,10.47
2018-07-05T19:28:23.634Z,10.03
2018-07-05T19:31:17.005Z,10.43
2018-07-05T19:34:10.593Z,10.03
2018-07-05T19:37:04.024Z,11.27
2018-07-05T19:39:57.534Z,10.83
2018-07-05T19:42:51.870Z,10.97
2018-07-05T19:45:45.327Z,10.43
2018-07-05T19:48:38.964Z,10.30
2018-07-05T19:51:33.184Z,11.73
2018-07-05T19:54:26.775Z,10.80
2018-07-05T19:57:20.253Z,11.40
2018-07-05T20:00:13.752Z,10.90
2018-07-05T20:03:07.869Z,11.93
2018-07-05T20:06:09.528Z,12.20
2018-07-05T20:09:05.350Z,11.77
2018-07-05T20:12:06.182Z,11.73
2018-07-05T20:15:00.615Z,12.57
2018-07-05T20:17:55.329Z,12.37
2018-07-05T20:20:49.056Z,13.33
2018-07-05T20:23:42.715Z,13.30
2018-07-05T20:26:36.415Z,13.40
2018-07-05T20:29:30.452Z,13.40
2018-07-05T20:32:26.766Z,13.83
2018-07-05T20:35:22.162Z,13.03
2018-07-05T20:38:16.183Z,13.53
2018-07-05T20:41:09.956Z,14.67
2018-07-05T20:44:03.813Z,14.20
2018-07-05T20:46:57.453Z,13.90
2018-07-05T20:49:50.978Z,13.60
2018-07-05T20:52:44.829Z,14.10
2018-07-05T20:55:40.554Z,15.07
2018-07-05T20:58:34.896Z,15.20
2018-07-05T21:01:28.357Z,15.40
2018-07-05T21:04:22.480Z,14.70
2018-07-05T21:07:10.344Z,13.80
2018-07-05T21:09:58.138Z,14.83
2018-07-05T21:12:53.403Z,15.07
2018-07-05T21:15:47.112Z,15.50
2018-07-05T21:18:40.919Z,14.67
2018-07-05T21:21:37.727Z,15.87
2018-07-05T21:24:31.526Z,15.17
2018-07-05T21:27:25.455Z,15.43
2018-07-05T21:30:23.571Z,14.87
2018-07-05T21:33:18.713Z,16.37
2018-07-05T21:36:12.424Z,17.43
2018-07-05T21:39:05.980Z,15.33
2018-07-05T21:41:59.908Z,16.97
2018-07-05T21:44:53.576Z,17.93
2018-07-05T21:47:47.869Z,17.83
2018-07-05T21:50:41.794Z,19.10
2018-07-05T21:53:35.476Z,18.57
2018-07-05T21:56:29.340Z,18.87
2018-07-05T21:59:23.165Z,17.83
2018-07-05T22:02:16.746Z,19.10
2018-07-05T22:05:18.660Z,19.43
2018-07-05T22:08:12.169Z,19.33
2018-07-05T22:11:06.500Z,19.37
2018-07-05T22:14:00.271Z,18.97
2018-07-05T22:16:58.808Z,18.63
2018-07-05T22:19:57.283Z,20.87
2018-07-05T22:22:55.992Z,20.03
2018-07-05T22:25:54.907Z,19.90
2018-07-05T22:28:53.500Z,20.30
2018-07-05T22:31:51.125Z,19.43
2018-07-05T22:34:44.463Z,20.40
2018-07-05T22:37:38.332Z,19.87
2018-07-05T22:40:32.144Z,20.20
2018-07-05T22:43:26.400Z,21.50
2018-07-05T22:46:21.314Z,21.43
2018-07-05T22:49:15.108Z,22.00
2018-07-05T22:52:09.125Z,21.83
2018-07-05T22:55:03.071Z,22.70
2018-07-05T22:57:56.838Z,23.50
2018-07-05T23:00:50.660Z,23.33
2018-07-05T23:03:44.428Z,23.20
2018-07-05T23:06:37.946Z,21.87
2018-07-05T23:09:25.586Z,21.93
2018-07-05T23:12:19.091Z,20.63
2018-07-05T23:15:17.008Z,21.70
2018-07-05T23:18:10.549Z,23.57
2018-07-05T23:21:04.259Z,24.17
2018-07-05T23:23:57.999Z,23.17
2018-07-05T23:26:51.553Z,23.17
2018-07-05T23:29:45.023Z,23.73
2018-07-05T23:32:38.612Z,24.07
2018-07-05T23:35:32.297Z,24.23
2018-07-05T23:38:25.962Z,24.87
2018-07-05T23:41:19.800Z,23.93
2018-07-05T23:44:13.460Z,23.93
2018-07-05T23:47:07.104Z,24.03
2018-07-05T23:50:01.440Z,23.83
2018-07-05T23:52:55.096Z,24.97
2018-07-05T23:55:48.785Z,26.47
2018-07-05T23:58:42.312Z,25.17
